Time;durP1;ratioP1;P1;durP2;ratioP2;P2;SDS_P1;SDS_P2;PMS_P1;PMS_P2;Temp;Humidity;BMP_temperature;BMP_pressure;BME280_temperature;BME280_humidity;BME280_pressure;Samples;Min_cycle;Max_cycle;Signal;HPM_P1;HPM_P2
2021/06/05 00:00:19;;;;;;;91.63;60.70;;;19.00;99.90;;;;;;5086558;28;20185;-61
2021/06/05 00:02:44;;;;;;;91.72;64.10;;;19.10;99.90;;;;;;5086481;28;20532;-61
2021/06/05 00:05:11;;;;;;;106.63;67.55;;;19.00;99.90;;;;;;5083799;28;20246;-61
2021/06/05 00:07:37;;;;;;;101.20;66.82;;;19.10;99.90;;;;;;5086390;28;20183;-61
2021/06/05 00:10:07;;;;;;;108.47;65.55;;;19.20;99.90;;;;;;5086563;28;20684;-61
2021/06/05 00:12:34;;;;;;;102.38;65.30;;;19.10;99.90;;;;;;5086015;28;20221;-61
2021/06/05 00:15:00;;;;;;;98.50;64.63;;;19.00;99.90;;;;;;5083821;28;20171;-60
2021/06/05 00:17:25;;;;;;;93.72;64.53;;;19.00;99.90;;;;;;5085951;28;20172;-61
2021/06/05 00:19:51;;;;;;;95.03;62.42;;;19.00;99.90;;;;;;5086297;28;20236;-60
2021/06/05 00:22:18;;;;;;;102.95;64.07;;;19.00;99.90;;;;;;5085951;28;20156;-61
2021/06/05 00:24:43;;;;;;;97.45;64.15;;;18.90;99.90;;;;;;5083499;28;20188;-61
2021/06/05 00:27:10;;;;;;;95.97;64.93;;;19.00;99.90;;;;;;5085269;28;20172;-60
2021/06/05 00:29:35;;;;;;;100.72;64.57;;;19.10;99.90;;;;;;5086322;28;20160;-60
2021/06/05 00:32:01;;;;;;;95.22;61.97;;;19.10;99.90;;;;;;5086037;28;20164;-60
2021/06/05 00:34:27;;;;;;;93.70;62.83;;;19.00;99.90;;;;;;5083794;28;20239;-61
2021/06/05 00:36:53;;;;;;;100.07;63.47;;;19.00;99.90;;;;;;5085815;28;20218;-60
2021/06/05 00:39:18;;;;;;;87.72;61.47;;;19.00;99.90;;;;;;5084592;28;20169;-60
2021/06/05 00:41:44;;;;;;;84.82;59.80;;;19.10;99.90;;;;;;5085653;28;20187;-60
2021/06/05 00:44:13;;;;;;;87.07;58.63;;;19.00;99.90;;;;;;5085240;28;20182;-60
2021/06/05 00:46:39;;;;;;;88.20;58.00;;;19.00;99.90;;;;;;5084034;28;20210;-60
2021/06/05 00:49:08;;;;;;;87.97;60.85;;;19.10;99.90;;;;;;5085152;28;20157;-60
2021/06/05 00:51:46;;;;;;;86.13;59.88;;;19.10;99.90;;;;;;5084473;28;20219;-61
2021/06/05 00:54:14;;;;;;;91.45;59.45;;;19.10;99.90;;;;;;5084470;28;20255;-61
2021/06/05 00:56:42;;;;;;;97.15;61.90;;;19.10;99.90;;;;;;5082893;28;20172;-60
2021/06/05 00:59:08;;;;;;;89.30;60.22;;;19.00;99.90;;;;;;5084315;28;20164;-60
2021/06/05 01:01:33;;;;;;;91.55;61.88;;;18.90;99.90;;;;;;5085083;28;20171;-60
2021/06/05 01:03:59;;;;;;;93.25;62.17;;;19.00;99.90;;;;;;5085770;28;20525;-60
2021/06/05 01:06:31;;;;;;;88.00;61.72;;;19.00;99.90;;;;;;5082597;28;20179;-61
2021/06/05 01:09:18;;;;;;;90.63;61.92;;;19.00;99.90;;;;;;5085751;28;20164;-60
2021/06/05 01:11:55;;;;;;;92.78;62.40;;;18.90;99.90;;;;;;5085185;28;20225;-61
2021/06/05 01:14:44;;;;;;;93.15;62.97;;;18.80;99.90;;;;;;5082471;28;20204;-60
2021/06/05 01:17:21;;;;;;;101.32;63.97;;;18.60;99.90;;;;;;5085152;28;20168;-60
2021/06/05 01:19:52;;;;;;;102.60;66.40;;;18.50;99.90;;;;;;5085672;28;20167;-60
2021/06/05 01:22:40;;;;;;;105.60;67.35;;;18.50;99.90;;;;;;5085298;28;20156;-60
2021/06/05 01:25:27;;;;;;;117.00;70.53;;;18.40;99.90;;;;;;5082734;28;20209;-60
2021/06/05 01:28:16;;;;;;;150.18;78.55;;;18.30;99.90;;;;;;5085051;28;20172;-60
2021/06/05 01:30:49;;;;;;;164.93;82.32;;;18.20;99.90;;;;;;5084173;28;20171;-60
2021/06/05 01:33:21;;;;;;;170.18;85.90;;;18.10;99.90;;;;;;5085336;28;20239;-60
2021/06/05 01:35:47;;;;;;;197.10;87.72;;;17.80;99.90;;;;;;5082654;28;20235;-60
2021/06/05 01:38:14;;;;;;;184.68;86.07;;;17.90;99.90;;;;;;5085280;28;20251;-60
2021/06/05 01:40:42;;;;;;;188.00;85.50;;;17.90;99.90;;;;;;5085442;28;20213;-60
2021/06/05 01:43:09;;;;;;;169.93;82.63;;;17.80;99.90;;;;;;5084953;28;20567;-60
2021/06/05 01:45:39;;;;;;;178.15;85.28;;;17.60;99.90;;;;;;5082781;28;20199;-60
2021/06/05 01:48:06;;;;;;;179.57;87.88;;;17.60;99.90;;;;;;5085305;28;20164;-60
2021/06/05 01:50:37;;;;;;;178.65;85.28;;;17.50;99.90;;;;;;5083889;28;20601;-60
2021/06/05 01:53:09;;;;;;;168.18;85.00;;;17.30;99.90;;;;;;5085034;28;20153;-60
2021/06/05 01:55:43;;;;;;;161.63;82.80;;;17.30;99.90;;;;;;5082174;28;20168;-60
2021/06/05 01:58:13;;;;;;;169.10;84.85;;;17.10;99.90;;;;;;5084408;28;20176;-60
2021/06/05 02:00:43;;;;;;;179.82;85.80;;;17.00;99.90;;;;;;5085228;28;20228;-61
2021/06/05 02:03:10;;;;;;;175.85;85.28;;;17.00;99.90;;;;;;5084981;28;20164;-60
2021/06/05 02:05:37;;;;;;;172.55;84.75;;;16.90;99.90;;;;;;5082306;28;20191;-60
2021/06/05 02:08:03;;;;;;;153.45;79.10;;;16.90;99.90;;;;;;5084950;28;20160;-60
2021/06/05 02:10:31;;;;;;;157.88;80.93;;;16.90;99.90;;;;;;5087804;28;20164;-60
2021/06/05 02:12:58;;;;;;;145.88;75.03;;;16.90;99.90;;;;;;5088315;28;20649;-60
2021/06/05 02:15:40;;;;;;;146.07;73.78;;;16.70;99.90;;;;;;5085954;28;20238;-60
2021/06/05 02:18:11;;;;;;;143.40;69.78;;;16.50;99.90;;;;;;5088464;28;20160;-60
2021/06/05 02:20:48;;;;;;;157.18;71.32;;;16.30;99.90;;;;;;5088313;28;20190;-60
2021/06/05 02:23:24;;;;;;;157.57;72.60;;;16.20;99.90;;;;;;5088504;28;20197;-60
2021/06/05 02:25:53;;;;;;;163.48;70.72;;;16.10;99.90;;;;;;5085670;28;20233;-60
2021/06/05 02:28:19;;;;;;;160.52;68.72;;;16.10;99.90;;;;;;5087902;28;20168;-60
2021/06/05 02:30:45;;;;;;;145.02;65.78;;;16.10;99.90;;;;;;5088521;28;20226;-61
2021/06/05 02:33:11;;;;;;;144.88;64.78;;;16.10;99.90;;;;;;5086947;28;20156;-60
2021/06/05 02:35:41;;;;;;;140.68;63.97;;;16.00;99.90;;;;;;5085746;28;20225;-59
2021/06/05 02:38:07;;;;;;;124.85;59.17;;;16.10;99.90;;;;;;5088140;28;20160;-61
2021/06/05 02:40:36;;;;;;;124.63;58.95;;;16.20;99.90;;;;;;5088570;28;20184;-60
2021/06/05 02:43:05;;;;;;;122.50;56.30;;;16.20;99.90;;;;;;5088067;28;20202;-60
2021/06/05 02:45:47;;;;;;;116.22;55.65;;;16.20;99.90;;;;;;5085448;28;20210;-60
2021/06/05 02:48:13;;;;;;;119.80;56.15;;;16.30;99.90;;;;;;5087934;28;20160;-64
2021/06/05 02:51:02;;;;;;;111.20;54.22;;;16.40;99.90;;;;;;5087888;28;20237;-60
2021/06/05 02:53:27;;;;;;;95.30;51.85;;;16.50;99.90;;;;;;5087954;28;20182;-60
2021/06/05 02:55:53;;;;;;;102.40;53.03;;;16.60;99.90;;;;;;5085276;28;20172;-60
2021/06/05 02:58:18;;;;;;;86.85;51.17;;;16.50;99.90;;;;;;5087237;28;20172;-60
2021/06/05 03:00:46;;;;;;;94.97;52.03;;;16.50;99.90;;;;;;5087653;28;20160;-60
2021/06/05 03:03:14;;;;;;;88.90;48.38;;;16.50;99.90;;;;;;5087676;28;20164;-60
2021/06/05 03:05:41;;;;;;;79.43;46.15;;;16.60;99.90;;;;;;5085043;28;20195;-60
2021/06/05 03:08:11;;;;;;;74.88;44.45;;;16.50;99.90;;;;;;5087593;28;20222;-60
2021/06/05 03:10:37;;;;;;;79.93;43.45;;;16.50;99.90;;;;;;5087790;28;20168;-60
2021/06/05 03:13:06;;;;;;;73.55;43.08;;;16.50;99.90;;;;;;5087392;28;20237;-60
2021/06/05 03:15:32;;;;;;;64.75;37.92;;;16.60;99.90;;;;;;5084962;28;20164;-59
2021/06/05 03:17:58;;;;;;;58.60;37.55;;;16.40;99.90;;;;;;5087547;28;20246;-60
2021/06/05 03:20:29;;;;;;;68.90;38.55;;;16.40;99.90;;;;;;5085891;28;20171;-60
2021/06/05 03:22:57;;;;;;;65.57;38.08;;;16.40;99.90;;;;;;5087367;28;20192;-60
2021/06/05 03:25:23;;;;;;;50.22;33.42;;;16.50;99.90;;;;;;5084501;28;20222;-60
2021/06/05 03:27:48;;;;;;;57.13;34.67;;;16.40;99.90;;;;;;5086844;28;20172;-60
2021/06/05 03:30:17;;;;;;;60.95;34.22;;;16.40;99.90;;;;;;5087135;28;20201;-60
2021/06/05 03:32:43;;;;;;;58.17;32.78;;;16.60;99.90;;;;;;5087282;28;20168;-60
2021/06/05 03:35:15;;;;;;;51.50;31.60;;;16.60;99.90;;;;;;5084480;28;20168;-60
2021/06/05 03:37:40;;;;;;;50.47;32.53;;;16.60;99.90;;;;;;5086957;28;20179;-60
2021/06/05 03:40:09;;;;;;;51.92;31.05;;;16.50;99.90;;;;;;5087348;28;20160;-60
2021/06/05 03:42:35;;;;;;;49.50;30.50;;;16.50;99.90;;;;;;5086642;28;20186;-60
2021/06/05 03:45:01;;;;;;;49.35;29.23;;;16.50;99.90;;;;;;5084480;28;20200;-60
2021/06/05 03:47:26;;;;;;;43.22;27.10;;;16.50;99.90;;;;;;5086795;28;20227;-60
2021/06/05 03:49:53;;;;;;;44.92;28.25;;;16.50;99.90;;;;;;5085599;28;20223;-60
2021/06/05 03:52:23;;;;;;;42.20;27.38;;;16.40;99.90;;;;;;5085384;28;20192;-60
2021/06/05 03:54:53;;;;;;;39.63;26.15;;;16.50;99.90;;;;;;5084386;28;20764;-60
2021/06/05 03:57:21;;;;;;;39.28;26.60;;;16.50;99.90;;;;;;5086087;28;20305;-60
2021/06/05 03:59:47;;;;;;;37.35;26.92;;;16.60;99.90;;;;;;5086877;28;20186;-60
2021/06/05 04:02:13;;;;;;;46.55;27.33;;;16.50;99.90;;;;;;5086391;28;20176;-61
2021/06/05 04:04:40;;;;;;;47.55;27.40;;;16.50;99.90;;;;;;5084082;28;20168;-60
2021/06/05 04:07:09;;;;;;;48.00;27.08;;;16.40;99.90;;;;;;5086037;28;20172;-60
2021/06/05 04:09:39;;;;;;;43.10;26.73;;;16.30;99.90;;;;;;5086747;28;20217;-60
2021/06/05 04:12:06;;;;;;;48.25;27.40;;;16.30;99.90;;;;;;5086158;28;20176;-60
2021/06/05 04:14:32;;;;;;;42.67;28.17;;;16.20;99.90;;;;;;5083800;28;20160;-60
2021/06/05 04:16:58;;;;;;;40.28;26.35;;;16.30;99.90;;;;;;5084934;28;20198;-60
2021/06/05 04:19:24;;;;;;;41.97;27.35;;;16.30;99.90;;;;;;5086409;28;20164;-61
2021/06/05 04:21:50;;;;;;;42.83;28.67;;;16.30;99.90;;;;;;5086222;28;20235;-60
2021/06/05 04:24:16;;;;;;;39.80;27.52;;;16.30;99.90;;;;;;5083656;28;20175;-60
2021/06/05 04:26:42;;;;;;;41.90;27.77;;;16.20;99.90;;;;;;5084202;28;20196;-60
2021/06/05 04:29:08;;;;;;;38.20;28.20;;;16.10;99.90;;;;;;5086124;28;20227;-60
2021/06/05 04:31:33;;;;;;;36.05;26.98;;;16.10;99.90;;;;;;5086111;28;20509;-60
2021/06/05 04:33:59;;;;;;;41.17;28.17;;;16.20;99.90;;;;;;5085214;28;20235;-60
2021/06/05 04:36:25;;;;;;;47.50;28.65;;;16.20;99.90;;;;;;5082835;28;20874;-60
2021/06/05 04:38:50;;;;;;;42.60;26.13;;;16.00;99.90;;;;;;5085941;28;20251;-60
2021/06/05 04:41:19;;;;;;;36.03;26.30;;;15.90;99.90;;;;;;5085663;28;20168;-60
2021/06/05 04:43:45;;;;;;;42.25;28.00;;;15.80;99.90;;;;;;5085674;28;20196;-60
2021/06/05 04:46:13;;;;;;;43.72;26.80;;;15.80;99.90;;;;;;5082966;28;20612;-60
2021/06/05 04:48:39;;;;;;;52.60;28.83;;;15.70;99.90;;;;;;5085866;28;20171;-60
2021/06/05 04:51:06;;;;;;;41.33;26.63;;;15.70;99.90;;;;;;5085689;28;20219;-60
2021/06/05 04:53:32;;;;;;;32.22;26.67;;;15.80;99.90;;;;;;5086153;28;20554;-60
2021/06/05 04:55:57;;;;;;;38.78;25.52;;;15.80;99.90;;;;;;5083099;28;20164;-60
2021/06/05 04:58:23;;;;;;;34.65;25.23;;;15.90;99.90;;;;;;5085224;28;20203;-60
2021/06/05 05:00:51;;;;;;;37.42;25.27;;;16.00;99.90;;;;;;5085686;28;20227;-60
2021/06/05 05:03:21;;;;;;;37.95;26.02;;;16.00;99.90;;;;;;5085443;28;20225;-60
2021/06/05 05:05:48;;;;;;;33.25;25.48;;;16.00;99.90;;;;;;5082972;28;20188;-60
2021/06/05 05:08:15;;;;;;;36.00;25.13;;;16.00;99.90;;;;;;5085474;28;20186;-60
2021/06/05 05:10:44;;;;;;;44.53;28.13;;;16.10;99.90;;;;;;5085749;28;20213;-60
2021/06/05 05:13:11;;;;;;;44.80;31.55;;;16.00;99.90;;;;;;5085119;28;20172;-60
2021/06/05 05:15:37;;;;;;;44.15;31.67;;;16.00;99.90;;;;;;5081868;28;20532;-60
2021/06/05 05:18:03;;;;;;;47.70;33.80;;;15.90;99.90;;;;;;5085401;28;20172;-60
2021/06/05 05:20:32;;;;;;;56.47;35.85;;;15.80;99.90;;;;;;5085490;28;20160;-60
2021/06/05 05:22:57;;;;;;;56.28;37.65;;;15.80;99.90;;;;;;5085510;28;20164;-60
2021/06/05 05:25:23;;;;;;;68.72;41.38;;;15.70;99.90;;;;;;5082734;28;20223;-60
2021/06/05 05:27:49;;;;;;;77.80;41.05;;;15.60;99.90;;;;;;5084994;28;20183;-60
2021/06/05 05:30:24;;;;;;;68.53;43.20;;;15.60;99.90;;;;;;5084071;28;20160;-60
2021/06/05 05:32:50;;;;;;;73.97;41.47;;;15.50;99.90;;;;;;5085365;28;20186;-60
2021/06/05 05:35:16;;;;;;;69.50;42.10;;;15.50;99.90;;;;;;5082569;28;20168;-60
2021/06/05 05:37:42;;;;;;;77.43;45.30;;;15.60;99.90;;;;;;5084999;28;20172;-60
2021/06/05 05:40:09;;;;;;;76.47;43.78;;;15.50;99.90;;;;;;5085183;28;20160;-60
2021/06/05 05:42:36;;;;;;;85.38;46.10;;;15.70;99.90;;;;;;5085066;28;20179;-60
2021/06/05 05:45:02;;;;;;;80.63;46.17;;;15.60;99.90;;;;;;5085023;28;20203;-60
2021/06/05 05:47:28;;;;;;;84.85;45.83;;;15.70;99.90;;;;;;5088812;28;20176;-60
2021/06/05 05:49:53;;;;;;;83.63;45.78;;;15.60;99.90;;;;;;5089104;28;20329;-60
2021/06/05 05:52:19;;;;;;;78.60;44.78;;;15.60;99.90;;;;;;5089149;28;20160;-60
2021/06/05 05:54:44;;;;;;;79.55;46.35;;;15.50;99.90;;;;;;5086457;28;20408;-60
2021/06/05 05:57:10;;;;;;;78.80;45.20;;;15.50;99.90;;;;;;5087036;28;20188;-60
2021/06/05 05:59:36;;;;;;;82.75;44.55;;;15.40;99.90;;;;;;5089034;28;20164;-60
2021/06/05 06:02:02;;;;;;;86.45;47.97;;;15.40;99.90;;;;;;5088739;28;20254;-60
2021/06/05 06:04:28;;;;;;;79.35;45.63;;;15.50;99.90;;;;;;5086284;28;20509;-60
2021/06/05 06:06:53;;;;;;;80.10;46.33;;;15.40;99.90;;;;;;5087026;28;20251;-60
2021/06/05 06:09:19;;;;;;;76.22;44.35;;;15.50;99.90;;;;;;5088471;28;20156;-60
2021/06/05 06:11:46;;;;;;;71.88;42.47;;;15.40;99.90;;;;;;5088216;28;20153;-60
2021/06/05 06:14:16;;;;;;;71.82;42.25;;;15.40;99.90;;;;;;5087899;28;20164;-61
2021/06/05 06:16:42;;;;;;;72.75;42.47;;;15.40;99.90;;;;;;5087063;28;20629;-60
2021/06/05 06:19:12;;;;;;;67.82;42.08;;;15.40;99.90;;;;;;5088460;28;20187;-60
2021/06/05 06:21:38;;;;;;;71.57;42.05;;;15.40;99.90;;;;;;5088515;28;20168;-60
2021/06/05 06:24:04;;;;;;;65.25;39.78;;;15.50;99.90;;;;;;5088692;28;20519;-60
2021/06/05 06:26:30;;;;;;;63.83;38.00;;;15.50;99.90;;;;;;5085461;28;20195;-60
2021/06/05 06:29:06;;;;;;;60.25;39.53;;;15.50;99.90;;;;;;5088131;28;20164;-60
2021/06/05 06:31:32;;;;;;;71.45;38.38;;;15.40;99.90;;;;;;5088439;28;20155;-60
2021/06/05 06:33:57;;;;;;;54.40;37.95;;;15.30;99.90;;;;;;5088216;28;20195;-60
2021/06/05 06:36:24;;;;;;;55.78;37.30;;;15.30;99.90;;;;;;5084786;28;20183;-60
2021/06/05 06:38:50;;;;;;;56.22;36.33;;;15.40;99.90;;;;;;5088112;28;20668;-60
2021/06/05 06:41:21;;;;;;;57.80;37.10;;;15.40;99.90;;;;;;5087937;28;20214;-60
2021/06/05 06:43:47;;;;;;;52.28;36.00;;;15.40;99.90;;;;;;5087685;28;20687;-60
2021/06/05 06:46:17;;;;;;;49.92;34.90;;;15.40;99.90;;;;;;5084884;28;20220;-60
2021/06/05 06:48:44;;;;;;;50.00;35.25;;;15.40;99.90;;;;;;5088078;28;20195;-60
2021/06/05 06:51:10;;;;;;;45.67;32.05;;;15.50;99.90;;;;;;5087588;28;20259;-60
2021/06/05 06:53:36;;;;;;;50.72;32.65;;;15.50;99.90;;;;;;5088104;28;20164;-60
2021/06/05 06:56:04;;;;;;;40.33;28.02;;;15.50;99.90;;;;;;5082778;28;20164;-60
2021/06/05 06:58:30;;;;;;;44.80;27.52;;;15.70;99.90;;;;;;5087234;28;20193;-60
2021/06/05 07:00:55;;;;;;;36.92;26.35;;;15.60;99.90;;;;;;5087950;28;20188;-60
2021/06/05 07:03:21;;;;;;;36.38;26.23;;;15.70;99.90;;;;;;5086909;28;20164;-60
2021/06/05 07:05:47;;;;;;;31.25;25.60;;;15.80;99.90;;;;;;5084651;28;20222;-60
2021/06/05 07:08:21;;;;;;;36.25;26.70;;;15.80;99.90;;;;;;5086965;28;20187;-60
2021/06/05 07:10:49;;;;;;;34.47;25.80;;;15.60;99.90;;;;;;5087419;28;20156;-60
2021/06/05 07:13:16;;;;;;;41.65;26.60;;;15.60;99.90;;;;;;5087030;28;20163;-60
2021/06/05 07:15:42;;;;;;;35.85;27.10;;;15.70;99.90;;;;;;5084852;28;20186;-60
2021/06/05 07:18:09;;;;;;;45.42;27.85;;;15.70;99.90;;;;;;5086998;28;20172;-60
2021/06/05 07:20:35;;;;;;;38.05;28.45;;;15.80;99.90;;;;;;5086194;28;20175;-60
2021/06/05 07:23:01;;;;;;;41.78;30.75;;;15.80;99.90;;;;;;5087197;28;20225;-60
2021/06/05 07:25:27;;;;;;;44.50;29.58;;;15.70;99.90;;;;;;5084431;28;20192;-60
2021/06/05 07:27:54;;;;;;;43.78;31.30;;;15.70;99.90;;;;;;5085473;28;20717;-60
2021/06/05 07:30:20;;;;;;;43.35;31.30;;;15.70;99.90;;;;;;5087098;28;20164;-61
2021/06/05 07:32:46;;;;;;;38.65;30.05;;;15.70;99.90;;;;;;5087037;28;20711;-60
2021/06/05 07:35:11;;;;;;;39.40;30.00;;;15.90;99.90;;;;;;5084156;28;20226;-60
2021/06/05 07:37:37;;;;;;;44.55;30.63;;;15.90;99.90;;;;;;5085515;28;20164;-60
2021/06/05 07:40:07;;;;;;;43.72;30.73;;;16.00;99.90;;;;;;5086987;28;20214;-60
2021/06/05 07:42:35;;;;;;;43.40;31.15;;;16.10;99.90;;;;;;5086612;28;20175;-60
2021/06/05 07:45:01;;;;;;;41.03;31.70;;;16.20;99.90;;;;;;5084341;28;20739;-60
2021/06/05 07:47:27;;;;;;;44.97;32.78;;;16.00;99.90;;;;;;5086343;28;20232;-60
2021/06/05 07:49:53;;;;;;;45.60;33.95;;;15.90;99.90;;;;;;5086433;28;20222;-60
2021/06/05 07:52:23;;;;;;;42.85;32.92;;;15.90;99.90;;;;;;5086452;28;20164;-60
2021/06/05 07:54:52;;;;;;;44.65;31.20;;;15.80;99.90;;;;;;5083587;28;20176;-60
2021/06/05 07:57:19;;;;;;;47.30;34.35;;;15.70;99.90;;;;;;5085752;28;20223;-60
2021/06/05 07:59:44;;;;;;;44.60;33.85;;;15.70;99.90;;;;;;5086067;28;20164;-60
2021/06/05 08:02:10;;;;;;;40.97;31.10;;;15.70;99.90;;;;;;5086008;28;20166;-60
2021/06/05 08:04:36;;;;;;;42.35;31.52;;;15.70;99.90;;;;;;5082249;28;20459;-60
2021/06/05 08:07:02;;;;;;;50.85;33.10;;;15.70;99.90;;;;;;5084739;28;20198;-60
2021/06/05 08:09:28;;;;;;;40.05;31.02;;;15.80;99.90;;;;;;5086180;28;20167;-60
2021/06/05 08:11:54;;;;;;;42.22;29.67;;;15.80;99.90;;;;;;5085941;28;20243;-60
2021/06/05 08:14:19;;;;;;;44.97;30.95;;;15.80;99.90;;;;;;5084589;28;20160;-60
2021/06/05 08:16:45;;;;;;;51.05;31.42;;;15.70;99.90;;;;;;5085031;28;20179;-60
2021/06/05 08:19:13;;;;;;;45.97;31.85;;;15.80;99.90;;;;;;5086114;28;20255;-60
2021/06/05 08:21:42;;;;;;;42.47;31.65;;;15.80;99.90;;;;;;5086102;28;20186;-60
2021/06/05 08:24:10;;;;;;;49.60;33.50;;;15.70;99.90;;;;;;5085851;28;20176;-60
2021/06/05 08:26:35;;;;;;;47.78;32.80;;;15.90;99.90;;;;;;5083500;28;20196;-60
2021/06/05 08:29:01;;;;;;;49.78;33.78;;;16.10;99.90;;;;;;5085829;28;20211;-60
2021/06/05 08:31:27;;;;;;;50.88;37.17;;;16.10;99.90;;;;;;5085013;28;20406;-60
2021/06/05 08:33:53;;;;;;;49.05;35.42;;;16.20;99.90;;;;;;5085565;28;20178;-60
2021/06/05 08:36:24;;;;;;;47.67;34.70;;;16.40;99.90;;;;;;5081773;28;20168;-60
2021/06/05 08:38:50;;;;;;;47.40;33.42;;;16.30;99.90;;;;;;5085990;28;20175;-60
2021/06/05 08:41:38;;;;;;;46.03;35.28;;;16.10;99.90;;;;;;5085437;28;20406;-60
2021/06/05 08:44:16;;;;;;;39.92;32.42;;;16.00;99.90;;;;;;5085712;28;20160;-60
2021/06/05 08:46:47;;;;;;;45.60;30.05;;;15.70;99.90;;;;;;5084194;28;20214;-61
2021/06/05 08:49:22;;;;;;;43.72;28.60;;;15.70;99.90;;;;;;5085321;28;20168;-61
2021/06/05 08:51:59;;;;;;;36.47;28.08;;;15.70;99.90;;;;;;5085588;28;20201;-61
2021/06/05 08:54:50;;;;;;;39.08;28.55;;;15.80;99.90;;;;;;5083320;28;20186;-61
2021/06/05 08:57:54;;;;;;;35.45;25.73;;;15.70;99.90;;;;;;5085045;28;20175;-59
2021/06/05 09:00:33;;;;;;;33.17;28.17;;;15.80;99.90;;;;;;5084362;28;20217;-60
2021/06/05 09:03:21;;;;;;;37.42;28.58;;;16.00;99.90;;;;;;5085327;28;20179;-60
2021/06/05 09:06:00;;;;;;;38.17;28.02;;;16.00;99.90;;;;;;5082504;28;20211;-60
2021/06/05 09:08:28;;;;;;;40.83;31.30;;;15.90;99.90;;;;;;5083824;28;20179;-59
2021/06/05 09:11:00;;;;;;;41.30;30.77;;;15.80;99.90;;;;;;5085635;28;20160;-60
2021/06/05 09:13:26;;;;;;;41.38;31.58;;;15.90;99.90;;;;;;5085151;28;20187;-60
2021/06/05 09:16:19;;;;;;;43.50;34.95;;;16.10;99.90;;;;;;5082907;28;20160;-60
2021/06/05 09:18:47;;;;;;;29.65;24.70;;;16.30;99.90;;;;;;5085491;28;20172;-60
2021/06/05 09:21:22;;;;;;;27.95;24.33;;;16.10;99.90;;;;;;5089267;28;20289;-59
2021/06/05 09:23:48;;;;;;;36.97;27.02;;;15.90;99.90;;;;;;5089470;28;20166;-60
2021/06/05 09:26:18;;;;;;;35.22;24.33;;;15.80;99.90;;;;;;5086813;28;20187;-60
2021/06/05 09:28:44;;;;;;;31.40;24.48;;;15.70;99.90;;;;;;5089036;28;20246;-60
2021/06/05 09:31:26;;;;;;;30.33;23.85;;;15.50;99.90;;;;;;5089366;28;20231;-59
2021/06/05 09:33:52;;;;;;;34.95;25.38;;;15.40;99.90;;;;;;5089191;28;20172;-59
2021/06/05 09:36:20;;;;;;;31.02;24.63;;;15.20;99.90;;;;;;5086477;28;20282;-59
2021/06/05 09:39:10;;;;;;;30.88;23.88;;;15.30;99.90;;;;;;5089258;28;20190;-59
2021/06/05 09:41:36;;;;;;;30.05;23.92;;;15.40;99.90;;;;;;5089366;28;20192;-60
2021/06/05 09:44:29;;;;;;;26.95;21.27;;;15.50;99.90;;;;;;5088913;28;20388;-60
2021/06/05 09:47:11;;;;;;;24.40;18.55;;;15.70;99.90;;;;;;5087846;28;20257;-60
2021/06/05 09:49:46;;;;;;;22.38;16.83;;;15.80;99.90;;;;;;5089093;28;20207;-59
2021/06/05 09:52:15;;;;;;;23.95;18.30;;;15.60;99.90;;;;;;5088730;28;20221;-60
2021/06/05 09:54:46;;;;;;;25.60;19.08;;;15.60;99.90;;;;;;5086423;28;20384;-59
2021/06/05 09:57:15;;;;;;;25.38;19.88;;;15.80;99.90;;;;;;5088190;28;20259;-59
2021/06/05 09:59:41;;;;;;;27.60;22.85;;;16.00;99.90;;;;;;5088743;28;20263;-60
2021/06/05 10:02:16;;;;;;;33.90;26.38;;;16.20;99.90;;;;;;5088548;28;20568;-60
2021/06/05 10:04:42;;;;;;;49.17;37.35;;;16.20;99.90;;;;;;5084865;28;20228;-60
2021/06/05 10:07:26;;;;;;;58.38;40.50;;;16.00;99.90;;;;;;5088183;28;20172;-60
2021/06/05 10:10:04;;;;;;;53.80;38.85;;;15.60;99.90;;;;;;5088019;28;20159;-59
2021/06/05 10:12:35;;;;;;;54.65;39.45;;;15.30;99.90;;;;;;5086495;28;20190;-59
2021/06/05 10:15:11;;;;;;;54.42;39.42;;;15.30;99.90;;;;;;5086048;28;20171;-59
2021/06/05 10:17:53;;;;;;;61.47;39.92;;;15.40;99.90;;;;;;5088386;28;20167;-59
2021/06/05 10:20:39;;;;;;;65.40;42.55;;;15.20;99.90;;;;;;5088335;28;20191;-60
2021/06/05 10:23:05;;;;;;;69.65;50.58;;;15.20;99.90;;;;;;5088381;28;20163;-59
2021/06/05 10:25:49;;;;;;;71.65;51.17;;;15.20;99.90;;;;;;5085719;28;20196;-59
2021/06/05 10:28:17;;;;;;;67.13;45.97;;;15.30;99.90;;;;;;5087407;28;20168;-59
2021/06/05 10:30:45;;;;;;;62.42;45.40;;;15.40;99.90;;;;;;5088341;28;20209;-60
2021/06/05 10:33:42;;;;;;;51.22;39.13;;;15.50;99.90;;;;;;5088118;28;20163;-61
2021/06/05 10:36:17;;;;;;;64.40;45.97;;;15.70;99.90;;;;;;5085689;28;20172;-60
2021/06/05 10:38:47;;;;;;;56.70;41.92;;;15.80;99.90;;;;;;5088006;28;20175;-60
2021/06/05 10:41:19;;;;;;;57.22;40.38;;;16.00;99.90;;;;;;5070137;28;20188;-59
2021/06/05 10:43:46;;;;;;;58.97;43.85;;;15.90;99.90;;;;;;5087830;28;20588;-60
2021/06/05 10:46:19;;;;;;;62.33;44.63;;;15.90;99.90;;;;;;5085241;28;20657;-60
2021/06/05 10:48:47;;;;;;;51.83;38.67;;;16.00;99.90;;;;;;5087588;28;20578;-60
2021/06/05 10:51:19;;;;;;;43.17;34.53;;;16.00;99.90;;;;;;5087488;28;20673;-59
2021/06/05 10:53:57;;;;;;;49.35;40.13;;;15.70;99.90;;;;;;5087631;28;20167;-60
2021/06/05 10:56:32;;;;;;;66.20;43.13;;;15.70;99.90;;;;;;5083638;28;20191;-60
2021/06/05 10:58:59;;;;;;;59.75;47.35;;;15.60;99.90;;;;;;5087128;28;20183;-60
2021/06/05 11:01:40;;;;;;;66.78;51.97;;;15.50;99.90;;;;;;5087611;28;20172;-60
2021/06/05 11:04:27;;;;;;;79.05;58.70;;;15.60;99.90;;;;;;5087453;28;20239;-60
2021/06/05 11:06:53;;;;;;;81.00;60.70;;;15.60;99.90;;;;;;5085594;28;20278;-60
2021/06/05 11:09:29;;;;;;;74.53;56.22;;;15.70;99.90;;;;;;5085988;28;20226;-61
2021/06/05 11:11:59;;;;;;;72.70;52.75;;;15.70;99.90;;;;;;5087160;28;20152;-61
2021/06/05 11:14:37;;;;;;;67.57;47.00;;;15.60;99.90;;;;;;5085362;28;20156;-61
2021/06/05 11:17:10;;;;;;;68.43;48.03;;;15.60;99.90;;;;;;5087083;28;20171;-61
2021/06/05 11:19:47;;;;;;;67.57;47.30;;;15.50;99.90;;;;;;5086791;28;20227;-61
2021/06/05 11:22:51;;;;;;;63.33;46.63;;;15.50;99.90;;;;;;5085190;28;20168;-61
2021/06/05 11:25:17;;;;;;;75.03;51.65;;;15.40;99.90;;;;;;5083279;28;20217;-61
2021/06/05 11:27:44;;;;;;;73.13;52.05;;;15.40;99.90;;;;;;5085692;28;20282;-60
2021/06/05 11:30:22;;;;;;;76.45;51.08;;;15.40;99.90;;;;;;5086132;28;20170;-61
2021/06/05 11:33:01;;;;;;;76.28;52.35;;;15.50;99.90;;;;;;5086228;28;20164;-61
2021/06/05 11:35:41;;;;;;;86.43;56.72;;;15.40;99.90;;;;;;5083780;28;20662;-61
2021/06/05 11:38:10;;;;;;;85.47;57.53;;;15.40;99.90;;;;;;5085883;28;20243;-61
2021/06/05 11:41:05;;;;;;;90.88;58.38;;;15.50;99.90;;;;;;5085623;28;20176;-61
2021/06/05 11:43:31;;;;;;;86.00;58.13;;;15.50;99.90;;;;;;5086041;28;20237;-61
2021/06/05 11:46:25;;;;;;;83.55;59.22;;;15.50;99.90;;;;;;5084258;28;20681;-61
2021/06/05 11:49:00;;;;;;;85.50;61.33;;;15.50;99.90;;;;;;5083357;28;20190;-61
2021/06/05 11:51:32;;;;;;;75.45;53.53;;;15.50;99.90;;;;;;5086628;28;20243;-61
2021/06/05 11:54:15;;;;;;;78.40;55.75;;;15.50;99.90;;;;;;5086829;28;20171;-61
2021/06/05 11:57:17;;;;;;;66.97;44.58;;;15.60;99.90;;;;;;5085055;28;20164;-60
2021/06/05 11:59:45;;;;;;;66.82;47.58;;;15.70;99.90;;;;;;5085413;28;20205;-62
2021/06/05 12:02:31;;;;;;;52.55;38.08;;;16.10;99.90;;;;;;5084657;28;20184;-61
2021/06/05 12:05:03;;;;;;;31.88;26.77;;;16.60;99.90;;;;;;5083741;28;20203;-61
2021/06/05 12:07:36;;;;;;;40.38;31.55;;;16.60;99.90;;;;;;5085008;28;20227;-61
2021/06/05 12:10:03;;;;;;;36.00;24.92;;;16.80;99.90;;;;;;5086432;28;20164;-61
2021/06/05 12:12:36;;;;;;;39.88;33.00;;;16.90;99.90;;;;;;5085548;28;20186;-61
2021/06/05 12:15:15;;;;;;;27.48;21.85;;;17.00;99.90;;;;;;5083935;28;20255;-61
2021/06/05 12:17:42;;;;;;;22.60;16.67;;;17.00;99.90;;;;;;5085840;28;20259;-61
2021/06/05 12:20:28;;;;;;;21.70;17.48;;;17.20;99.90;;;;;;5085872;28;20163;-61
2021/06/05 12:23:12;;;;;;;21.05;17.77;;;17.10;99.90;;;;;;5086098;28;20653;-62
2021/06/05 12:25:43;;;;;;;28.88;19.40;;;17.30;99.90;;;;;;5083316;28;20286;-61
2021/06/05 12:28:12;;;;;;;20.08;15.55;;;17.50;99.90;;;;;;5085155;28;20176;-61
2021/06/05 12:30:43;;;;;;;20.75;15.45;;;17.40;99.90;;;;;;5085987;28;20157;-61
2021/06/05 12:33:12;;;;;;;19.23;14.25;;;17.20;99.90;;;;;;5085542;28;20243;-61
2021/06/05 12:35:43;;;;;;;18.83;14.35;;;17.20;99.90;;;;;;5081916;28;20172;-61
2021/06/05 12:38:12;;;;;;;22.25;14.38;;;17.40;99.90;;;;;;5085362;28;20175;-61
2021/06/05 12:40:53;;;;;;;21.45;13.85;;;17.90;99.90;;;;;;5085435;28;20629;-61